Time;durP1;ratioP1;P1;durP2;ratioP2;P2;SDS_P1;SDS_P2;PMS_P1;PMS_P2;Temp;Humidity;BMP_temperature;BMP_pressure;BME280_temperature;BME280_humidity;BME280_pressure;Samples;Min_cycle;Max_cycle;Signal;HPM_P1;HPM_P2
2022/05/29 00:00:48;;;;;;;11.65;3.55;;;9.40;99.90;;;;;;5042063;28;19964;-68
2022/05/29 00:03:14;;;;;;;8.90;3.25;;;9.40;99.90;;;;;;5041801;28;20052;-68
2022/05/29 00:05:41;;;;;;;8.23;2.95;;;;;;;;;;5041618;28;20060;-68
2022/05/29 00:08:07;;;;;;;8.23;3.35;;;;;;;;;;5024623;28;20055;-70
2022/05/29 00:10:37;;;;;;;10.88;3.20;;;9.30;99.90;;;;;;5031406;28;20044;-69
2022/05/29 00:13:04;;;;;;;11.43;3.58;;;9.40;99.90;;;;;;5031318;28;20052;-70
2022/05/29 00:15:29;;;;;;;10.45;3.22;;;9.30;99.90;;;;;;5032452;28;20049;-71
2022/05/29 00:17:55;;;;;;;8.70;3.45;;;9.30;99.90;;;;;;5037206;28;20044;-70
2022/05/29 00:20:20;;;;;;;9.80;3.55;;;9.30;99.90;;;;;;5037540;28;20453;-70
2022/05/29 00:22:46;;;;;;;11.15;3.47;;;9.30;99.90;;;;;;5035085;28;20104;-70
2022/05/29 00:25:12;;;;;;;8.27;3.00;;;9.30;99.90;;;;;;5038054;28;20049;-71
2022/05/29 00:27:38;;;;;;;11.18;3.53;;;9.30;99.90;;;;;;5027457;28;20140;-70
2022/05/29 00:30:07;;;;;;;9.60;3.50;;;9.30;99.90;;;;;;5044573;28;20057;-70
2022/05/29 00:32:33;;;;;;;9.15;3.67;;;9.30;99.90;;;;;;5047528;28;20033;-69
2022/05/29 00:34:59;;;;;;;7.22;3.03;;;9.40;99.90;;;;;;5047480;28;20048;-70
2022/05/29 00:37:24;;;;;;;9.63;3.00;;;9.40;99.90;;;;;;5047584;28;20053;-70
2022/05/29 00:39:52;;;;;;;9.07;3.40;;;9.40;99.90;;;;;;5044882;28;20128;-70
2022/05/29 00:42:21;;;;;;;8.90;3.15;;;9.40;99.90;;;;;;5046557;28;20100;-71
2022/05/29 00:44:47;;;;;;;10.68;3.47;;;9.40;99.90;;;;;;5049871;28;20073;-70
2022/05/29 00:47:14;;;;;;;10.10;3.60;;;;;;;;;;5045237;28;20061;-70
2022/05/29 00:49:42;;;;;;;8.93;3.13;;;9.50;99.90;;;;;;5046892;28;20037;-70
2022/05/29 00:52:28;;;;;;;7.75;3.28;;;9.50;99.90;;;;;;5043535;28;20167;-70
2022/05/29 00:55:00;;;;;;;10.43;3.20;;;10.00;99.90;;;;;;5047913;28;20041;-71
2022/05/29 00:57:35;;;;;;;9.07;3.05;;;9.60;99.90;;;;;;5043869;28;20064;-70
2022/05/29 01:00:12;;;;;;;7.55;3.13;;;9.50;99.90;;;;;;5045555;28;20065;-70
2022/05/29 01:02:38;;;;;;;8.95;3.17;;;9.50;99.90;;;;;;5043366;28;20037;-70
2022/05/29 01:05:06;;;;;;;9.23;3.20;;;9.60;99.90;;;;;;5046980;28;20095;-70
2022/05/29 01:07:32;;;;;;;;;;;9.60;99.90;;;;;;5044879;28;20380;-69
2022/05/29 01:10:00;;;;;;;8.85;2.95;;;9.60;99.90;;;;;;5038107;28;19921;-68
2022/05/29 01:12:51;;;;;;;8.50;3.65;;;9.60;99.90;;;;;;5031593;28;20130;-70
2022/05/29 01:15:27;;;;;;;7.13;3.17;;;9.60;99.90;;;;;;5033296;28;20052;-70
2022/05/29 01:18:02;;;;;;;7.38;3.38;;;9.50;99.90;;;;;;5028592;28;20061;-69
2022/05/29 01:21:08;;;;;;;10.98;3.25;;;9.50;99.90;;;;;;5030860;28;20045;-69
2022/05/29 01:23:52;;;;;;;9.83;3.20;;;9.60;99.90;;;;;;5030079;28;20436;-70
2022/05/29 01:26:42;;;;;;;8.90;3.03;;;9.60;99.90;;;;;;5029486;28;20323;-69
2022/05/29 01:29:15;;;;;;;7.35;3.10;;;9.60;99.90;;;;;;5032643;28;20045;-69
2022/05/29 01:31:53;;;;;;;8.43;3.40;;;9.50;99.90;;;;;;5028682;28;20132;-69
2022/05/29 01:34:34;;;;;;;9.73;3.47;;;9.60;99.90;;;;;;5030827;28;20045;-70
2022/05/29 01:37:27;;;;;;;6.72;3.13;;;9.50;99.90;;;;;;5029223;28;20666;-71
2022/05/29 01:40:13;;;;;;;8.68;3.40;;;9.50;99.90;;;;;;5042726;28;20041;-69
2022/05/29 01:42:54;;;;;;;6.93;3.30;;;9.40;99.90;;;;;;5024778;28;20069;-70
2022/05/29 01:45:34;;;;;;;9.60;3.17;;;9.30;99.90;;;;;;5034318;28;20053;-70
2022/05/29 01:48:15;;;;;;;8.25;3.08;;;9.20;99.90;;;;;;5029245;28;20524;-70
2022/05/29 01:50:44;;;;;;;10.10;3.72;;;9.20;99.90;;;;;;5056534;22;20052;-55
2022/05/29 01:53:16;;;;;;;8.18;3.17;;;9.00;99.90;;;;;;4923400;28;20561;-56
2022/05/29 01:55:48;;;;;;;8.65;3.38;;;9.00;99.90;;;;;;4923278;28;20126;-54
2022/05/29 01:58:22;;;;;;;10.90;3.60;;;8.90;99.90;;;;;;4923766;28;20047;-56
2022/05/29 02:00:49;;;;;;;8.85;3.50;;;8.90;99.90;;;;;;4926033;28;20040;-55
2022/05/29 02:03:22;;;;;;;12.00;3.88;;;8.90;99.90;;;;;;4926940;28;20546;-57
2022/05/29 02:05:58;;;;;;;10.90;3.40;;;8.90;99.90;;;;;;4926712;28;20344;-55
2022/05/29 02:08:37;;;;;;;7.72;3.67;;;8.90;99.90;;;;;;4927788;28;20563;-56
2022/05/29 02:11:22;;;;;;;13.05;3.85;;;8.90;99.90;;;;;;4927451;28;20043;-56
2022/05/29 02:14:05;;;;;;;11.70;3.60;;;9.00;99.90;;;;;;4937728;28;20044;-56
2022/05/29 02:16:44;;;;;;;8.93;3.60;;;8.90;99.90;;;;;;4929609;28;20113;-55
2022/05/29 02:19:29;;;;;;;8.88;3.55;;;8.90;99.90;;;;;;4929350;29;20143;-56
2022/05/29 02:22:07;;;;;;;9.80;3.88;;;8.90;99.90;;;;;;4927591;28;20050;-55
2022/05/29 02:24:44;;;;;;;11.50;3.83;;;8.90;99.90;;;;;;4928060;28;20039;-56
2022/05/29 02:27:21;;;;;;;12.73;4.15;;;8.90;99.90;;;;;;4927111;28;20540;-56
2022/05/29 02:29:47;;;;;;;16.70;4.75;;;8.90;99.90;;;;;;4928503;28;20050;-54
2022/05/29 02:32:25;;;;;;;11.00;3.88;;;9.00;99.90;;;;;;4929237;28;20059;-55
2022/05/29 02:35:11;;;;;;;10.00;3.67;;;9.00;99.90;;;;;;4936800;28;20048;-56
2022/05/29 02:38:01;;;;;;;9.35;3.38;;;9.00;99.90;;;;;;4924582;28;20051;-56
2022/05/29 02:40:42;;;;;;;11.85;3.92;;;9.00;99.90;;;;;;4924731;28;20446;-56
2022/05/29 02:43:30;;;;;;;10.07;3.65;;;9.10;99.90;;;;;;4928602;28;20131;-55
2022/05/29 02:46:07;;;;;;;11.57;4.25;;;9.10;99.90;;;;;;4927149;28;20097;-56
2022/05/29 02:48:33;;;;;;;11.50;3.63;;;9.10;99.90;;;;;;4924891;28;20051;-55
2022/05/29 02:51:17;;;;;;;11.40;4.28;;;9.10;99.90;;;;;;4930415;28;20051;-56
2022/05/29 02:53:44;;;;;;;11.23;4.05;;;9.10;99.90;;;;;;4926223;28;20048;-55
2022/05/29 02:56:10;;;;;;;6.68;3.60;;;9.10;99.90;;;;;;4926885;29;20040;-56
2022/05/29 02:58:38;;;;;;;11.02;3.67;;;9.10;99.90;;;;;;4928131;29;20551;-57
2022/05/29 03:01:12;;;;;;;9.40;3.90;;;9.10;99.90;;;;;;4930001;28;20050;-56
2022/05/29 03:03:51;;;;;;;10.50;3.95;;;9.10;99.90;;;;;;4927630;28;20055;-56
2022/05/29 03:06:39;;;;;;;8.52;3.75;;;9.10;99.90;;;;;;4924547;28;20048;-55
2022/05/29 03:09:27;;;;;;;11.43;3.70;;;9.10;99.90;;;;;;4928453;28;20501;-54
2022/05/29 03:11:54;;;;;;;12.45;4.45;;;9.10;99.90;;;;;;4926711;28;20052;-55
2022/05/29 03:14:43;;;;;;;8.40;4.63;;;9.10;99.90;;;;;;4927050;28;20454;-55
2022/05/29 03:17:32;;;;;;;9.80;3.72;;;9.20;99.90;;;;;;4928634;28;20403;-55
2022/05/29 03:20:33;;;;;;;9.75;3.78;;;9.20;99.90;;;;;;4928354;29;20119;-56
2022/05/29 03:23:22;;;;;;;11.85;4.15;;;9.20;99.90;;;;;;4929924;28;20131;-55
2022/05/29 03:25:56;;;;;;;8.85;3.58;;;9.20;99.90;;;;;;4926268;28;20059;-55
2022/05/29 03:28:30;;;;;;;12.20;3.75;;;9.20;99.90;;;;;;4926758;29;20509;-54
2022/05/29 03:30:58;;;;;;;9.48;3.95;;;9.20;99.90;;;;;;4928840;29;20178;-55
2022/05/29 03:33:24;;;;;;;10.00;3.90;;;9.20;99.90;;;;;;4931179;28;21648;-53
2022/05/29 03:35:52;;;;;;;10.07;3.97;;;9.20;99.90;;;;;;4943155;28;20056;-55
2022/05/29 03:38:18;;;;;;;10.35;3.72;;;9.20;99.90;;;;;;4928912;28;20040;-55
2022/05/29 03:40:46;;;;;;;10.15;4.00;;;9.20;99.90;;;;;;4928163;28;20121;-56
2022/05/29 03:43:11;;;;;;;10.85;4.13;;;9.10;99.90;;;;;;4928107;28;20066;-55
2022/05/29 03:45:37;;;;;;;9.13;3.88;;;9.10;99.90;;;;;;4925262;28;20471;-57
2022/05/29 03:48:03;;;;;;;8.55;3.70;;;9.00;99.90;;;;;;4929131;29;20113;-54
2022/05/29 03:50:29;;;;;;;9.93;3.92;;;9.00;99.90;;;;;;4928058;29;20066;-54
2022/05/29 03:52:55;;;;;;;9.77;3.65;;;9.00;99.90;;;;;;4928552;29;20182;-55
2022/05/29 03:55:24;;;;;;;13.38;4.40;;;9.00;99.90;;;;;;4924679;28;20053;-54
2022/05/29 03:57:50;;;;;;;11.75;4.10;;;9.00;99.90;;;;;;4923813;28;20048;-56
2022/05/29 04:00:17;;;;;;;9.20;3.78;;;9.10;99.90;;;;;;4928550;29;20044;-54
2022/05/29 04:02:44;;;;;;;9.25;4.00;;;9.10;99.90;;;;;;4922995;29;20093;-55
2022/05/29 04:05:13;;;;;;;11.25;3.95;;;9.10;99.90;;;;;;4927321;28;20086;-54
2022/05/29 04:13:08;;;;;;;11.90;3.50;;;9.40;99.90;;;;;;4928046;28;20075;-54
2022/05/29 04:15:35;;;;;;;13.88;3.80;;;9.40;99.90;;;;;;4924804;28;20055;-56
2022/05/29 04:18:00;;;;;;;11.68;3.63;;;9.40;99.90;;;;;;4926100;28;20048;-55
2022/05/29 04:20:26;;;;;;;11.48;3.22;;;9.40;99.90;;;;;;4925473;29;20118;-55
2022/05/29 04:22:51;;;;;;;11.48;3.38;;;9.50;99.90;;;;;;4927633;29;20039;-55
2022/05/29 04:25:17;;;;;;;10.60;3.33;;;9.50;99.90;;;;;;4926191;29;20043;-54
2022/05/29 04:27:42;;;;;;;11.32;3.15;;;9.50;99.90;;;;;;4924892;29;20040;-55
2022/05/29 04:30:08;;;;;;;12.40;3.35;;;9.60;99.90;;;;;;4926360;29;20040;-55
2022/05/29 04:35:18;;;;;;;13.73;3.67;;;9.60;99.90;;;;;;4926196;29;20612;-55
2022/05/29 04:37:45;;;;;;;11.73;3.58;;;9.60;99.90;;;;;;4927501;29;20051;-57
2022/05/29 04:40:10;;;;;;;15.35;3.97;;;9.70;99.90;;;;;;4926525;28;20040;-55
2022/05/29 04:42:36;;;;;;;8.25;3.33;;;;;;;;;;4928993;28;20093;-54
2022/05/29 04:45:02;;;;;;;12.27;3.65;;;9.70;99.90;;;;;;4927239;28;20036;-55
2022/05/29 04:47:28;;;;;;;10.45;3.08;;;9.80;99.90;;;;;;4926361;28;20074;-53
2022/05/29 04:49:53;;;;;;;11.25;3.38;;;9.80;99.90;;;;;;4926381;29;20075;-56
2022/05/29 04:52:19;;;;;;;8.88;3.40;;;9.80;99.90;;;;;;4926076;29;20122;-55
2022/05/29 04:54:44;;;;;;;11.40;3.70;;;9.90;99.90;;;;;;4942731;29;20056;-56
2022/05/29 04:57:10;;;;;;;9.73;3.65;;;9.90;99.90;;;;;;4927888;29;20051;-55
2022/05/29 04:59:37;;;;;;;14.40;4.15;;;9.90;99.90;;;;;;4928578;28;20048;-54
2022/05/29 05:02:03;;;;;;;7.78;3.00;;;10.00;99.90;;;;;;4922937;29;20047;-56
2022/05/29 05:04:29;;;;;;;13.95;3.50;;;10.10;99.90;;;;;;4927775;28;20486;-57
2022/05/29 05:06:58;;;;;;;12.57;3.30;;;10.20;99.90;;;;;;4925937;29;20058;-56
2022/05/29 05:09:25;;;;;;;11.13;3.72;;;10.30;99.90;;;;;;4925964;28;20117;-57
2022/05/29 05:11:52;;;;;;;9.65;2.97;;;10.70;99.90;;;;;;4926767;29;20054;-57
2022/05/29 05:14:20;;;;;;;8.03;3.13;;;10.80;99.90;;;;;;4927569;29;20039;-56
2022/05/29 05:16:46;;;;;;;9.40;3.17;;;10.80;99.90;;;;;;4923745;28;20299;-56
2022/05/29 05:19:12;;;;;;;9.00;3.70;;;10.80;99.90;;;;;;4926451;28;20047;-57
2022/05/29 05:21:38;;;;;;;9.20;3.25;;;10.80;99.90;;;;;;4926370;28;20398;-55
2022/05/29 05:24:04;;;;;;;9.57;2.95;;;10.80;99.90;;;;;;4927646;29;20039;-56
2022/05/29 05:26:30;;;;;;;9.63;2.58;;;10.80;99.90;;;;;;4924212;29;20135;-55
2022/05/29 05:28:55;;;;;;;9.93;2.90;;;10.80;99.90;;;;;;4927106;29;20218;-56
2022/05/29 05:31:21;;;;;;;11.73;3.08;;;10.80;99.90;;;;;;4926476;28;20048;-57
2022/05/29 05:33:47;;;;;;;7.38;3.28;;;10.80;99.90;;;;;;4941834;29;20040;-57
2022/05/29 05:36:14;;;;;;;6.45;2.38;;;10.70;99.90;;;;;;4926969;29;20044;-56
2022/05/29 05:38:39;;;;;;;9.82;3.00;;;10.60;99.90;;;;;;4926074;29;20127;-55
2022/05/29 05:41:08;;;;;;;9.07;2.60;;;10.60;99.90;;;;;;4925649;28;20135;-57
2022/05/29 05:43:33;;;;;;;6.90;2.70;;;10.60;99.90;;;;;;4924553;28;20044;-54
2022/05/29 05:45:58;;;;;;;7.72;2.85;;;10.60;99.90;;;;;;4931371;28;20051;-57
2022/05/29 05:48:29;;;;;;;13.05;3.20;;;10.60;99.90;;;;;;4927295;28;20118;-56
2022/05/29 05:50:58;;;;;;;11.38;2.63;;;10.60;99.90;;;;;;4923128;28;20056;-56
2022/05/29 05:53:24;;;;;;;8.40;2.60;;;10.60;99.90;;;;;;4924991;29;20056;-55
2022/05/29 05:55:50;;;;;;;8.15;3.17;;;10.60;99.90;;;;;;4925394;29;20073;-57
2022/05/29 05:58:15;;;;;;;7.97;2.40;;;10.50;99.90;;;;;;4925580;29;20043;-55
2022/05/29 06:00:44;;;;;;;6.97;2.67;;;10.40;99.90;;;;;;4917578;29;20051;-57
2022/05/29 06:03:09;;;;;;;8.18;2.35;;;10.40;99.90;;;;;;4937436;28;20158;-55
2022/05/29 06:05:35;;;;;;;7.60;2.83;;;10.50;99.90;;;;;;4923741;28;20218;-56
2022/05/29 06:08:00;;;;;;;9.00;2.60;;;10.40;99.90;;;;;;5006734;28;20134;-57
2022/05/29 06:10:26;;;;;;;7.85;2.63;;;10.40;99.90;;;;;;4924149;29;20105;-57
2022/05/29 06:12:51;;;;;;;9.35;2.55;;;10.50;99.90;;;;;;4924592;28;20036;-55
2022/05/29 06:15:17;;;;;;;8.57;2.35;;;10.50;99.90;;;;;;4927072;29;20056;-56
2022/05/29 06:17:43;;;;;;;9.00;2.60;;;10.50;99.90;;;;;;4922085;29;20067;-58
2022/05/29 06:20:09;;;;;;;10.52;2.60;;;10.60;99.90;;;;;;4922363;28;20124;-56
2022/05/29 06:22:40;;;;;;;8.02;2.60;;;10.70;99.90;;;;;;4924011;29;20436;-56
2022/05/29 06:25:07;;;;;;;10.07;2.13;;;10.90;99.90;;;;;;4923817;28;20040;-56
2022/05/29 06:27:37;;;;;;;11.70;2.42;;;10.90;99.90;;;;;;4922868;28;20125;-58
2022/05/29 06:30:04;;;;;;;9.10;2.22;;;11.10;99.90;;;;;;4924115;28;20477;-55
2022/05/29 06:32:30;;;;;;;9.80;2.72;;;11.30;99.90;;;;;;4924260;28;20040;-56
2022/05/29 06:34:56;;;;;;;7.28;2.25;;;11.50;99.90;;;;;;4924090;28;20075;-58
2022/05/29 06:37:21;;;;;;;8.68;2.60;;;11.80;99.90;;;;;;4924525;29;20506;-56
2022/05/29 06:39:47;;;;;;;10.80;2.65;;;12.00;99.90;;;;;;4924800;28;20040;-54
2022/05/29 06:42:13;;;;;;;8.32;2.50;;;12.20;99.90;;;;;;4922817;29;20036;-55
2022/05/29 06:44:40;;;;;;;8.73;2.70;;;12.40;99.90;;;;;;4925083;29;20324;-55
2022/05/29 06:47:10;;;;;;;8.02;2.60;;;12.50;99.90;;;;;;4919217;29;20082;-53
2022/05/29 06:49:36;;;;;;;8.50;2.72;;;12.60;99.90;;;;;;4925317;28;20521;-54
2022/05/29 06:52:07;;;;;;;10.25;3.03;;;12.60;99.90;;;;;;4927820;29;20060;-54
2022/05/29 06:54:34;;;;;;;9.38;2.42;;;12.10;99.90;;;;;;4929117;28;20115;-54
2022/05/29 06:56:59;;;;;;;12.38;2.72;;;12.20;99.90;;;;;;4923048;29;20432;-56
2022/05/29 06:59:25;;;;;;;11.15;2.70;;;12.20;99.90;;;;;;4922828;28;20074;-56
2022/05/29 07:07:18;;;;;;;7.50;2.42;;;12.10;99.90;;;;;;4921573;28;20182;-55
2022/05/29 07:09:44;;;;;;;8.23;2.45;;;12.00;99.90;;;;;;4919707;29;20161;-55
2022/05/29 07:12:16;;;;;;;9.60;2.58;;;12.00;99.90;;;;;;4917027;28;20088;-55
2022/05/29 07:14:47;;;;;;;9.05;3.00;;;11.80;99.90;;;;;;4923136;29;20466;-55
2022/05/29 07:17:12;;;;;;;12.43;3.67;;;11.80;99.90;;;;;;4924705;28;20039;-55
2022/05/29 07:19:40;;;;;;;13.18;3.03;;;11.80;99.90;;;;;;4927088;29;20549;-54
2022/05/29 07:22:06;;;;;;;8.02;2.05;;;11.80;99.90;;;;;;4928258;29;20051;-55
2022/05/29 07:24:35;;;;;;;8.05;1.75;;;11.50;99.90;;;;;;4933238;28;20055;-54
2022/05/29 07:27:01;;;;;;;9.63;2.00;;;11.40;99.90;;;;;;4928716;29;20139;-56
2022/05/29 07:29:27;;;;;;;9.55;2.35;;;11.30;99.90;;;;;;4932424;29;20047;-55
2022/05/29 07:31:54;;;;;;;8.55;2.90;;;11.10;99.90;;;;;;4944191;29;20054;-53
2022/05/29 07:34:20;;;;;;;8.60;2.78;;;11.00;99.90;;;;;;4932850;28;20043;-55
2022/05/29 07:36:46;;;;;;;7.68;2.67;;;11.00;99.90;;;;;;4931605;29;20406;-54
2022/05/29 07:39:13;;;;;;;9.05;2.63;;;11.00;99.90;;;;;;4934659;29;20059;-55
2022/05/29 07:44:23;;;;;;;7.32;2.92;;;11.10;99.90;;;;;;4945738;28;20509;-55
2022/05/29 07:46:49;;;;;;;6.82;2.47;;;11.10;99.90;;;;;;4932985;28;20417;-53
2022/05/29 07:49:14;;;;;;;7.75;2.88;;;11.00;99.90;;;;;;4947191;29;20147;-55
2022/05/29 07:51:40;;;;;;;6.47;2.30;;;10.90;99.90;;;;;;4933083;28;20517;-55
2022/05/29 07:54:05;;;;;;;13.25;2.88;;;11.00;99.90;;;;;;4930569;28;20055;-55
2022/05/29 07:56:31;;;;;;;10.77;2.33;;;11.00;99.90;;;;;;4924064;28;20058;-55
2022/05/29 07:58:57;;;;;;;8.88;2.75;;;11.00;99.90;;;;;;4936179;28;20048;-54
2022/05/29 08:01:22;;;;;;;13.63;2.80;;;11.20;99.90;;;;;;4947018;28;20051;-55
2022/05/29 08:03:48;;;;;;;10.23;2.95;;;11.30;99.90;;;;;;4930360;29;20165;-54
2022/05/29 08:06:14;;;;;;;10.30;2.92;;;11.40;99.90;;;;;;4947019;29;20095;-56
2022/05/29 08:08:40;;;;;;;9.60;2.90;;;11.40;99.90;;;;;;4933040;28;20048;-56
2022/05/29 08:11:06;;;;;;;10.57;3.13;;;11.60;99.90;;;;;;4932323;29;20040;-55
2022/05/29 08:13:33;;;;;;;7.72;3.10;;;11.70;99.90;;;;;;4930475;29;20052;-54
2022/05/29 08:15:59;;;;;;;9.43;2.78;;;11.80;99.90;;;;;;4932680;28;20055;-55
2022/05/29 08:18:25;;;;;;;13.30;3.13;;;11.80;99.90;;;;;;4932506;29;20114;-55
2022/05/29 08:20:51;;;;;;;11.10;2.65;;;11.90;99.90;;;;;;4932799;29;20050;-55
2022/05/29 08:23:18;;;;;;;13.27;2.45;;;12.00;99.90;;;;;;4936141;29;20047;-55
2022/05/29 08:31:13;;;;;;;9.43;2.58;;;12.20;99.90;;;;;;4932289;28;20154;-55
2022/05/29 08:33:39;;;;;;;10.90;2.88;;;12.20;99.90;;;;;;4931467;28;20044;-55
2022/05/29 08:36:08;;;;;;;10.25;2.97;;;12.40;99.90;;;;;;4932440;29;20048;-56
2022/05/29 08:38:38;;;;;;;13.27;2.67;;;12.50;99.90;;;;;;4931753;29;20040;-54
2022/05/29 08:41:16;;;;;;;11.20;2.75;;;12.50;99.90;;;;;;4931307;29;20437;-55
2022/05/29 08:44:12;;;;;;;10.32;2.58;;;12.80;99.90;;;;;;4931389;28;20082;-55
2022/05/29 08:46:44;;;;;;;9.73;2.80;;;12.90;99.90;;;;;;4922245;29;20056;-55
2022/05/29 08:49:14;;;;;;;9.73;2.03;;;12.90;99.90;;;;;;4932380;28;20054;-56
2022/05/29 08:52:06;;;;;;;8.27;2.47;;;12.80;99.90;;;;;;4931377;29;20390;-54
2022/05/29 08:54:34;;;;;;;8.45;2.00;;;12.90;99.90;;;;;;4931623;29;20097;-56
2022/05/29 08:57:25;;;;;;;11.20;1.73;;;12.80;99.90;;;;;;4929831;28;20047;-56
2022/05/29 08:59:59;;;;;;;6.43;1.52;;;12.60;99.90;;;;;;4946566;28;20102;-55
2022/05/29 09:02:28;;;;;;;7.47;1.42;;;12.50;99.90;;;;;;4930142;28;20364;-55
2022/05/29 09:05:01;;;;;;;9.35;1.63;;;12.20;99.90;;;;;;4930881;29;20363;-55
2022/05/29 09:07:32;;;;;;;6.93;1.73;;;12.20;99.90;;;;;;4930155;29;20410;-55
2022/05/29 09:10:10;;;;;;;5.50;2.20;;;12.30;99.90;;;;;;4932168;29;20075;-54
2022/05/29 09:12:44;;;;;;;6.38;1.23;;;12.20;99.90;;;;;;4931433;28;20051;-56
2022/05/29 09:15:15;;;;;;;9.20;1.90;;;12.20;99.90;;;;;;4930505;28;20118;-56
2022/05/29 09:17:50;;;;;;;4.45;1.50;;;12.00;99.90;;;;;;4931430;28;20044;-55
2022/05/29 09:20:34;;;;;;;6.22;1.25;;;11.90;99.90;;;;;;4931926;29;20048;-55
2022/05/29 09:23:02;;;;;;;6.38;1.60;;;11.60;99.90;;;;;;4931343;29;20125;-55
2022/05/29 09:25:33;;;;;;;6.90;1.63;;;11.70;99.90;;;;;;4930217;29;20099;-55
2022/05/29 09:28:05;;;;;;;3.40;1.50;;;11.90;99.90;;;;;;4940705;28;20130;-53
2022/05/29 09:30:31;;;;;;;6.70;1.75;;;11.90;99.90;;;;;;4934832;29;20177;-56
2022/05/29 09:33:00;;;;;;;7.85;1.42;;;12.10;99.90;;;;;;4930824;28;20043;-56
2022/05/29 09:35:38;;;;;;;6.65;1.85;;;12.60;99.90;;;;;;4930103;29;20055;-56
2022/05/29 09:38:06;;;;;;;6.95;1.63;;;12.70;99.90;;;;;;4931116;29;20043;-55
2022/05/29 09:40:42;;;;;;;6.80;1.50;;;13.10;99.90;;;;;;4930505;29;20478;-56
2022/05/29 09:43:23;;;;;;;5.25;1.40;;;13.40;99.90;;;;;;4930586;29;20094;-56
2022/05/29 09:45:50;;;;;;;6.38;1.52;;;13.40;99.90;;;;;;4930903;28;20063;-55
2022/05/29 09:51:25;;;;;;;2.90;0.70;;;13.70;99.90;;;;;;4931356;28;20086;-56
2022/05/29 09:53:57;;;;;;;6.57;1.02;;;13.30;99.90;;;;;;4931003;29;20086;-54
2022/05/29 09:56:34;;;;;;;2.65;0.75;;;13.10;99.90;;;;;;4920621;28;20040;-56
2022/05/29 09:59:19;;;;;;;4.10;0.93;;;12.60;99.90;;;;;;4934217;28;20054;-56
2022/05/29 10:01:48;;;;;;;3.72;1.05;;;12.70;99.90;;;;;;4931101;29;20342;-55
2022/05/29 10:04:37;;;;;;;3.33;1.00;;;12.80;99.90;;;;;;4936371;29;20390;-54
2022/05/29 10:07:14;;;;;;;2.95;0.80;;;13.10;99.90;;;;;;4933517;28;20048;-53
2022/05/29 10:10:04;;;;;;;6.45;1.30;;;13.00;99.90;;;;;;4931022;28;20051;-55
2022/05/29 10:12:50;;;;;;;5.38;1.20;;;13.20;99.90;;;;;;4930676;29;20229;-54
2022/05/29 10:15:24;;;;;;;3.42;1.15;;;13.30;99.90;;;;;;4930766;29;20473;-56
2022/05/29 10:17:55;;;;;;;4.10;1.20;;;13.60;99.90;;;;;;4930824;29;20079;-54
2022/05/29 10:20:37;;;;;;;8.10;1.42;;;13.50;99.90;;;;;;4930428;29;20138;-55
2022/05/29 10:23:08;;;;;;;5.20;1.20;;;13.30;99.90;;;;;;4916204;28;20406;-56
2022/05/29 10:25:38;;;;;;;5.93;1.33;;;14.00;99.90;;;;;;4933206;28;20051;-57
2022/05/29 10:28:13;;;;;;;5.50;0.90;;;14.30;99.90;;;;;;4948218;28;20439;-56
2022/05/29 10:30:56;;;;;;;4.90;0.75;;;14.40;99.90;;;;;;4933476;28;20079;-55
2022/05/29 10:33:25;;;;;;;7.03;0.98;;;14.70;99.90;;;;;;4933821;29;20462;-56
2022/05/29 10:36:02;;;;;;;4.15;1.30;;;14.30;99.90;;;;;;4933455;28;20047;-55
2022/05/29 10:38:29;;;;;;;3.03;1.25;;;14.30;99.90;;;;;;4932468;29;20036;-55
2022/05/29 10:41:00;;;;;;;6.05;1.33;;;13.80;99.90;;;;;;4934258;28;20394;-56
2022/05/29 10:43:38;;;;;;;5.63;1.13;;;13.80;99.90;;;;;;4932980;28;20059;-56
2022/05/29 10:46:19;;;;;;;6.13;2.38;;;13.30;99.90;;;;;;4933417;28;20067;-56
2022/05/29 10:49:26;;;;;;;4.57;1.00;;;13.30;99.90;;;;;;5013198;28;20079;-55
2022/05/29 10:52:10;;;;;;;5.35;1.23;;;13.20;99.90;;;;;;4933138;28;20363;-55
2022/05/29 10:55:02;;;;;;;4.75;1.40;;;13.20;99.90;;;;;;4931271;29;20111;-55
2022/05/29 10:57:43;;;;;;;3.08;0.95;;;13.40;99.90;;;;;;4932649;28;20051;-57
2022/05/29 11:00:23;;;;;;;8.23;1.85;;;13.10;99.90;;;;;;4934477;28;20556;-56
2022/05/29 11:03:21;;;;;;;3.53;1.02;;;12.90;99.90;;;;;;4933027;29;20481;-57
2022/05/29 11:06:00;;;;;;;;;;;13.10;99.90;;;;;;4931884;28;20414;-55
2022/05/29 11:08:55;;;;;;;4.70;1.30;;;13.20;99.90;;;;;;4924334;28;20002;-56
2022/05/29 11:11:44;;;;;;;5.28;1.38;;;13.40;99.90;;;;;;4933422;29;20490;-56
2022/05/29 11:14:43;;;;;;;4.95;1.33;;;13.60;99.90;;;;;;4917590;28;20036;-54
2022/05/29 11:17:23;;;;;;;4.20;1.30;;;13.70;99.90;;;;;;4933554;28;20095;-55
2022/05/29 11:20:14;;;;;;;6.35;1.40;;;14.10;99.90;;;;;;4947694;28;20119;-56
2022/05/29 11:22:48;;;;;;;3.05;1.10;;;13.90;99.90;;;;;;4932957;28;20410;-54
2022/05/29 11:25:34;;;;;;;3.75;1.30;;;13.80;99.90;;;;;;4946983;28;20098;-56
2022/05/29 11:28:07;;;;;;;4.82;1.00;;;13.50;99.90;;;;;;4926260;29;20047;-56
2022/05/29 11:31:09;;;;;;;3.75;1.08;;;12.90;99.90;;;;;;4944983;28;20071;-56
2022/05/29 11:33:43;;;;;;;6.18;0.98;;;12.60;99.90;;;;;;4933142;29;20409;-55
2022/05/29 11:36:46;;;;;;;4.13;1.30;;;12.70;99.90;;;;;;4932878;29;20414;-55
2022/05/29 11:39:37;;;;;;;5.18;1.30;;;12.50;99.90;;;;;;4933287;29;20487;-56
2022/05/29 11:42:20;;;;;;;5.97;1.35;;;12.80;99.90;;;;;;4932624;29;20082;-56
2022/05/29 11:45:14;;;;;;;3.88;1.40;;;13.10;99.90;;;;;;4932513;29;20090;-56
2022/05/29 11:53:41;;;;;;;3.28;0.88;;;14.00;99.90;;;;;;4944302;28;20123;-55
2022/05/29 11:56:13;;;;;;;7.22;1.52;;;14.20;99.90;;;;;;4920026;29;20036;-55
2022/05/29 11:58:46;;;;;;;3.72;1.08;;;14.50;99.90;;;;;;4935976;29;20040;-55
2022/05/29 12:01:21;;;;;;;3.25;1.15;;;14.60;99.90;;;;;;4922754;28;20063;-56
2022/05/29 12:03:49;;;;;;;5.30;1.02;;;14.50;99.90;;;;;;4940699;28;20062;-55
2022/05/29 12:06:30;;;;;;;4.30;1.23;;;14.70;99.90;;;;;;4933140;29;20047;-56
2022/05/29 12:09:13;;;;;;;6.53;1.20;;;14.50;99.90;;;;;;4932588;29;20056;-55
2022/05/29 12:12:00;;;;;;;7.40;1.13;;;13.60;99.90;;;;;;4932008;28;20093;-53
2022/05/29 12:14:37;;;;;;;5.45;1.20;;;13.50;99.90;;;;;;4931595;28;20390;-55
2022/05/29 12:17:16;;;;;;;5.93;0.98;;;13.70;99.90;;;;;;4932381;28;20051;-55
2022/05/29 12:19:46;;;;;;;7.15;1.30;;;13.80;99.90;;;;;;4933357;28;20060;-54
2022/05/29 12:22:16;;;;;;;3.88;1.05;;;13.60;99.90;;;;;;4951835;28;20082;-53
2022/05/29 12:24:46;;;;;;;3.47;1.02;;;13.40;99.90;;;;;;4951984;28;20136;-55
2022/05/29 12:27:23;;;;;;;5.03;1.13;;;13.50;99.90;;;;;;4931781;28;20044;-55
2022/05/29 12:29:57;;;;;;;4.57;1.33;;;13.70;99.90;;;;;;4932683;28;20047;-54
2022/05/29 12:32:27;;;;;;;4.28;1.10;;;13.90;99.90;;;;;;4932599;29;20357;-55
2022/05/29 12:35:15;;;;;;;5.38;1.02;;;14.20;99.90;;;;;;4932693;28;20058;-55
2022/05/29 12:38:06;;;;;;;4.88;1.40;;;14.50;99.90;;;;;;4942227;28;20044;-56
2022/05/29 12:41:04;;;;;;;4.38;1.38;;;14.50;99.90;;;;;;4932957;28;20151;-56
2022/05/29 12:44:01;;;;;;;5.68;1.58;;;14.80;99.90;;;;;;4932663;29;20101;-55
2022/05/29 12:46:45;;;;;;;;;;;14.50;99.90;;;;;;4938274;28;20056;-55
2022/05/29 12:49:36;;;;;;;5.82;1.48;;;14.40;99.90;;;;;;4913183;29;20314;-56
2022/05/29 12:52:29;;;;;;;9.55;1.85;;;14.00;99.90;;;;;;4930259;29;20055;-56
2022/05/29 12:55:19;;;;;;;9.52;1.80;;;13.50;99.90;;;;;;4934554;29;20071;-56
2022/05/29 12:57:53;;;;;;;4.95;1.85;;;13.30;99.90;;;;;;4931595;28;20101;-56
2022/05/29 13:00:28;;;;;;;5.60;1.58;;;13.10;99.90;;;;;;4933626;29;20535;-55
2022/05/29 13:02:56;;;;;;;5.57;1.50;;;13.00;99.90;;;;;;4931943;29;20051;-57
2022/05/29 13:05:31;;;;;;;3.78;1.02;;;12.60;99.90;;;;;;4933896;29;20394;-54
2022/05/29 13:07:57;;;;;;;3.72;1.15;;;;;;;;;;4948696;28;20037;-53
2022/05/29 13:10:28;;;;;;;5.68;1.40;;;12.50;99.90;;;;;;5020537;28;20092;-56
2022/05/29 13:13:02;;;;;;;6.80;1.40;;;12.50;99.90;;;;;;5032259;28;20041;-55
2022/05/29 13:15:37;;;;;;;8.75;1.42;;;12.60;99.90;;;;;;5029546;28;20041;-56
2022/05/29 13:21:07;;;;;;;3.50;1.55;;;12.90;99.90;;;;;;5021680;28;20046;-57
2022/05/29 13:23:36;;;;;;;4.85;1.48;;;13.20;99.90;;;;;;5016674;28;20177;-55
2022/05/29 13:26:02;;;;;;;5.40;1.33;;;13.60;99.90;;;;;;4931417;28;20367;-57
2022/05/29 13:28:41;;;;;;;6.85;1.88;;;13.60;99.90;;;;;;4929263;29;20051;-56
2022/05/29 13:31:12;;;;;;;6.15;1.27;;;13.80;99.90;;;;;;4929911;28;20449;-56
2022/05/29 13:34:10;;;;;;;6.22;1.23;;;14.00;99.90;;;;;;4931674;28;20407;-56
2022/05/29 13:36:46;;;;;;;5.18;1.33;;;13.90;99.90;;;;;;4968020;28;20051;-56
2022/05/29 13:39:24;;;;;;;5.00;1.27;;;14.00;99.90;;;;;;4931449;29;20051;-56
2022/05/29 13:41:52;;;;;;;;;;;14.00;99.90;;;;;;4931943;29;20069;-55
2022/05/29 13:44:38;;;;;;;4.93;1.25;;;14.00;99.90;;;;;;4931562;28;19929;-56
2022/05/29 13:47:19;;;;;;;5.03;1.50;;;13.80;99.90;;;;;;4912871;29;20048;-56
2022/05/29 13:49:56;;;;;;;2.85;1.20;;;13.70;99.90;;;;;;4912437;29;20059;-56
2022/05/29 13:52:28;;;;;;;4.85;1.20;;;13.50;99.90;;;;;;4913093;28;20060;-55
2022/05/29 13:55:11;;;;;;;6.95;1.67;;;13.30;99.90;;;;;;4924754;28;20231;-57